Private Wetterstation Sandau
Wetterdaten: Freitag, 21.09.2012
Datum Zeit Temp. A. Feuchte A. Luftdruck Regen Wind Richtung Richtung Taupunkt Windchill
21.09.2012 00:01 9,1 C 73 % 1022,5 hPa 0,0 l/m 3,2 km/h (1 Bft) S-SO 157 4,5 C 9,1 C
21.09.2012 00:06 9,0 C 73 % 1022,5 hPa 0,0 l/m 0,0 km/h (0 Bft) S 180 4,4 C 9,0 C
21.09.2012 00:11 8,9 C 73 % 1022,5 hPa 0,0 l/m 2,2 km/h (1 Bft) S-SO 157 4,3 C 8,9 C
21.09.2012 00:16 8,9 C 73 % 1022,5 hPa 0,0 l/m 0,0 km/h (0 Bft) S 180 4,3 C 8,9 C
21.09.2012 00:21 8,9 C 73 % 1022,4 hPa 0,0 l/m 1,4 km/h (1 Bft) S-SO 157 4,3 C 8,9 C
21.09.2012 00:26 8,9 C 74 % 1022,5 hPa 0,0 l/m 2,5 km/h (1 Bft) S-SW 202 4,5 C 8,9 C
21.09.2012 00:31 9,0 C 75 % 1022,5 hPa 0,0 l/m 1,8 km/h (1 Bft) S 180 4,8 C 9,0 C
21.09.2012 00:36 9,0 C 75 % 1022,5 hPa 0,0 l/m 2,5 km/h (1 Bft) S-SO 157 4,8 C 9,0 C
21.09.2012 00:41 9,0 C 75 % 1022,5 hPa 0,0 l/m 3,2 km/h (1 Bft) S-SO 157 4,8 C 9,0 C
21.09.2012 00:46 9,0 C 75 % 1022,5 hPa 0,0 l/m 2,5 km/h (1 Bft) S-SO 157 4,8 C 9,0 C
21.09.2012 00:51 9,0 C 75 % 1022,5 hPa 0,0 l/m 3,6 km/h (1 Bft) S-SW 202 4,8 C 9,0 C
21.09.2012 00:56 8,9 C 75 % 1022,4 hPa 0,0 l/m 3,2 km/h (1 Bft) S-SO 157 4,7 C 8,9 C
21.09.2012 01:01 8,9 C 75 % 1022,3 hPa 0,0 l/m 1,8 km/h (1 Bft) S-SO 157 4,7 C 8,9 C
21.09.2012 01:06 8,8 C 75 % 1022,3 hPa 0,0 l/m 3,2 km/h (1 Bft) S-SO 157 4,6 C 8,8 C
21.09.2012 01:11 8,7 C 76 % 1022,4 hPa 0,0 l/m 4,0 km/h (1 Bft) S-SO 157 4,7 C 8,7 C
21.09.2012 01:16 8,6 C 76 % 1022,2 hPa 0,0 l/m 1,4 km/h (1 Bft) S-SO 157 4,6 C 8,6 C
21.09.2012 01:21 8,5 C 76 % 1022,2 hPa 0,0 l/m 1,8 km/h (1 Bft) S-SO 157 4,5 C 8,5 C
21.09.2012 01:26 8,4 C 76 % 1022,2 hPa 0,0 l/m 1,4 km/h (1 Bft) S 180 4,4 C 8,4 C
21.09.2012 01:31 8,3 C 76 % 1022,1 hPa 0,0 l/m 5,4 km/h (1 Bft) S-SO 157 4,3 C 7,7 C
21.09.2012 01:36 8,3 C 76 % 1022,1 hPa 0,0 l/m 4,0 km/h (1 Bft) S-SO 157 4,3 C 8,3 C
21.09.2012 01:41 8,2 C 76 % 1022,1 hPa 0,0 l/m 0,0 km/h (0 Bft) S-SO 157 4,2 C 8,2 C
21.09.2012 01:46 8,2 C 76 % 1022,1 hPa 0,0 l/m 5,0 km/h (1 Bft) S-SO 157 4,2 C 7,7 C
21.09.2012 01:51 8,1 C 76 % 1022,1 hPa 0,0 l/m 2,9 km/h (1 Bft) S-SO 157 4,1 C 8,1 C
21.09.2012 01:56 8,1 C 76 % 1022,2 hPa 0,0 l/m 3,6 km/h (1 Bft) S 180 4,1 C 8,1 C
21.09.2012 02:01 8,1 C 77 % 1022,2 hPa 0,0 l/m 3,6 km/h (1 Bft) S-SO 157 4,3 C 8,1 C
21.09.2012 02:06 7,9 C 78 % 1022,2 hPa 0,0 l/m 2,5 km/h (1 Bft) S-SO 157 4,3 C 7,9 C
21.09.2012 02:11 7,9 C 78 % 1022,1 hPa 0,0 l/m 3,2 km/h (1 Bft) S 180 4,3 C 7,9 C
21.09.2012 02:16 7,9 C 78 % 1022,1 hPa 0,0 l/m 0,0 km/h (0 Bft) S-SO 157 4,3 C 7,9 C
21.09.2012 02:21 7,9 C 78 % 1022,1 hPa 0,0 l/m 3,2 km/h (1 Bft) S-SO 157 4,3 C 7,9 C
21.09.2012 02:26 7,9 C 78 % 1022,1 hPa 0,0 l/m 3,2 km/h (1 Bft) SO 135 4,3 C 7,9 C
21.09.2012 02:31 7,9 C 78 % 1022,1 hPa 0,0 l/m 2,2 km/h (1 Bft) S 180 4,3 C 7,9 C
21.09.2012 02:36 7,9 C 78 % 1022,0 hPa 0,0 l/m 3,2 km/h (1 Bft) S-SO 157 4,3 C 7,9 C
21.09.2012 02:41 7,8 C 78 % 1022,0 hPa 0,0 l/m 3,6 km/h (1 Bft) S-SW 202 4,2 C 7,8 C
21.09.2012 02:46 7,8 C 78 % 1022,0 hPa 0,0 l/m 3,2 km/h (1 Bft) S 180 4,2 C 7,8 C
21.09.2012 02:51 7,8 C 78 % 1021,8 hPa 0,0 l/m 4,7 km/h (1 Bft) S-SW 202 4,2 C 7,4 C
21.09.2012 02:56 7,8 C 79 % 1021,6 hPa 0,0 l/m 0,0 km/h (0 Bft) S-SO 157 4,4 C 7,8 C
21.09.2012 03:01 7,8 C 79 % 1021,8 hPa 0,0 l/m 2,9 km/h (1 Bft) S-SO 157 4,4 C 7,8 C
21.09.2012 03:06 7,8 C 79 % 1021,8 hPa 0,0 l/m 2,2 km/h (1 Bft) S-SO 157 4,4 C 7,8 C
21.09.2012 03:11 7,7 C 79 % 1021,7 hPa 0,0 l/m 3,2 km/h (1 Bft) S 180 4,3 C 7,7 C
21.09.2012 03:16 7,6 C 79 % 1021,8 hPa 0,0 l/m 0,0 km/h (0 Bft) S 180 4,2 C 7,6 C
21.09.2012 03:21 7,6 C 79 % 1021,7 hPa 0,0 l/m 4,7 km/h (1 Bft) S-SO 157 4,2 C 7,1 C
21.09.2012 03:26 7,6 C 79 % 1021,7 hPa 0,0 l/m 2,9 km/h (1 Bft) S-SO 157 4,2 C 7,6 C
21.09.2012 03:31 7,6 C 79 % 1021,6 hPa 0,0 l/m 4,7 km/h (1 Bft) S-SO 157 4,2 C 7,1 C
21.09.2012 03:36 7,6 C 79 % 1021,7 hPa 0,0 l/m 3,2 km/h (1 Bft) S-SO 157 4,2 C 7,6 C
21.09.2012 03:41 7,6 C 79 % 1021,6 hPa 0,0 l/m 4,3 km/h (1 Bft) S 180 4,2 C 7,6 C
21.09.2012 03:46 7,5 C 79 % 1021,6 hPa 0,0 l/m 3,6 km/h (1 Bft) S-SO 157 4,1 C 7,5 C
21.09.2012 03:51 7,5 C 79 % 1021,5 hPa 0,0 l/m 4,7 km/h (1 Bft) S-SW 202 4,1 C 7,0 C
21.09.2012 03:56 7,5 C 79 % 1021,6 hPa 0,0 l/m 4,3 km/h (1 Bft) S 180 4,1 C 7,5 C
21.09.2012 04:01 7,4 C 78 % 1021,5 hPa 0,0 l/m 4,0 km/h (1 Bft) S 180 3,8 C 7,4 C
21.09.2012 04:06 7,4 C 79 % 1021,5 hPa 0,0 l/m 4,0 km/h (1 Bft) S-SO 157 4,0 C 7,4 C
21.09.2012 04:11 7,4 C 79 % 1021,5 hPa 0,0 l/m 3,6 km/h (1 Bft) S-SO 157 4,0 C 7,4 C
21.09.2012 04:16 7,4 C 79 % 1021,4 hPa 0,0 l/m 2,5 km/h (1 Bft) S 180 4,0 C 7,4 C
21.09.2012 04:21 7,3 C 79 % 1021,4 hPa 0,0 l/m 3,2 km/h (1 Bft) S-SO 157 3,9 C 7,3 C
21.09.2012 04:26 7,3 C 79 % 1021,5 hPa 0,0 l/m 3,6 km/h (1 Bft) S-SO 157 3,9 C 7,3 C
21.09.2012 04:31 7,3 C 79 % 1021,4 hPa 0,0 l/m 0,0 km/h (0 Bft) S-SO 157 3,9 C 7,3 C
21.09.2012 04:36 7,4 C 79 % 1021,5 hPa 0,0 l/m 2,2 km/h (1 Bft) SO 135 4,0 C 7,4 C
21.09.2012 04:41 7,3 C 79 % 1021,4 hPa 0,0 l/m 0,0 km/h (0 Bft) S-SO 157 3,9 C 7,3 C
21.09.2012 04:46 7,3 C 79 % 1021,5 hPa 0,0 l/m 0,0 km/h (0 Bft) S 180 3,9 C 7,3 C
21.09.2012 04:51 7,3 C 79 % 1021,5 hPa 0,0 l/m 2,5 km/h (1 Bft) S-SO 157 3,9 C 7,3 C
21.09.2012 04:56 7,2 C 79 % 1021,4 hPa 0,0 l/m 0,0 km/h (0 Bft) S 180 3,8 C 7,2 C
21.09.2012 05:01 7,2 C 79 % 1021,4 hPa 0,0 l/m 2,2 km/h (1 Bft) S-SO 157 3,8 C 7,2 C
21.09.2012 05:06 7,2 C 79 % 1021,2 hPa 0,0 l/m 2,5 km/h (1 Bft) S-SO 157 3,8 C 7,2 C
21.09.2012 05:11 7,2 C 79 % 1021,3 hPa 0,0 l/m 0,0 km/h (0 Bft) S 180 3,8 C 7,2 C
21.09.2012 05:16 7,2 C 79 % 1021,2 hPa 0,0 l/m 0,0 km/h (0 Bft) S 180 3,8 C 7,2 C
21.09.2012 05:21 7,2 C 79 % 1021,4 hPa 0,0 l/m 1,4 km/h (1 Bft) SO 135 3,8 C 7,2 C
21.09.2012 05:26 7,2 C 80 % 1021,2 hPa 0,0 l/m 4,7 km/h (1 Bft) S 180 4,0 C 6,7 C
21.09.2012 05:31 7,1 C 80 % 1021,2 hPa 0,0 l/m 2,5 km/h (1 Bft) S-SO 157 3,9 C 7,1 C
21.09.2012 05:36 7,0 C 80 % 1021,1 hPa 0,0 l/m 4,0 km/h (1 Bft) S 180 3,8 C 7,0 C
21.09.2012 05:41 6,9 C 80 % 1021,1 hPa 0,0 l/m 2,5 km/h (1 Bft) S-SO 157 3,7 C 6,9 C
21.09.2012 05:46 6,9 C 79 % 1021,0 hPa 0,0 l/m 2,9 km/h (1 Bft) S-SO 157 3,5 C 6,9 C
21.09.2012 05:51 6,9 C 80 % 1020,9 hPa 0,0 l/m 3,2 km/h (1 Bft) S 180 3,7 C 6,9 C
21.09.2012 05:56 6,8 C 80 % 1021,0 hPa 0,0 l/m 2,5 km/h (1 Bft) SO 135 3,6 C 6,8 C
21.09.2012 06:01 6,8 C 80 % 1021,1 hPa 0,0 l/m 4,0 km/h (1 Bft) S 180 3,6 C 6,8 C
21.09.2012 06:06 6,8 C 80 % 1021,0 hPa 0,0 l/m 1,8 km/h (1 Bft) S 180 3,6 C 6,8 C
21.09.2012 06:11 6,6 C 80 % 1021,0 hPa 0,0 l/m 2,5 km/h (1 Bft) S-SO 157 3,4 C 6,6 C
21.09.2012 06:16 6,6 C 80 % 1021,0 hPa 0,0 l/m 1,4 km/h (1 Bft) S-SO 157 3,4 C 6,6 C
21.09.2012 06:21 6,6 C 80 % 1021,0 hPa 0,0 l/m 2,5 km/h (1 Bft) S-SO 157 3,4 C 6,6 C
21.09.2012 06:26 6,6 C 80 % 1021,0 hPa 0,0 l/m 4,7 km/h (1 Bft) S-SO 157 3,4 C 6,0 C
21.09.2012 06:31 6,5 C 80 % 1020,9 hPa 0,0 l/m 2,5 km/h (1 Bft) S-SO 157 3,3 C 6,5 C
21.09.2012 06:36 6,6 C 81 % 1020,9 hPa 0,0 l/m 3,6 km/h (1 Bft) S 180 3,6 C 6,6 C
21.09.2012 06:41 6,6 C 81 % 1021,0 hPa 0,0 l/m 4,7 km/h (1 Bft) S-SO 157 3,6 C 6,0 C
21.09.2012 06:46 6,6 C 81 % 1021,1 hPa 0,0 l/m 0,0 km/h (0 Bft) S-SO 157 3,6 C 6,6 C
21.09.2012 06:51 6,5 C 81 % 1021,0 hPa 0,0 l/m 5,4 km/h (1 Bft) S-SO 157 3,5 C 5,6 C
21.09.2012 06:56 6,5 C 81 % 1021,1 hPa 0,0 l/m 3,2 km/h (1 Bft) S-SO 157 3,5 C 6,5 C
21.09.2012 07:01 6,6 C 81 % 1021,0 hPa 0,0 l/m 2,2 km/h (1 Bft) S-SO 157 3,6 C 6,6 C
21.09.2012 07:06 6,6 C 81 % 1021,0 hPa 0,0 l/m 5,4 km/h (1 Bft) S-SO 157 3,6 C 5,8 C
21.09.2012 07:11 6,7 C 82 % 1021,0 hPa 0,0 l/m 6,1 km/h (2 Bft) SO 135 3,8 C 5,6 C
21.09.2012 07:16 6,8 C 82 % 1020,8 hPa 0,0 l/m 2,5 km/h (1 Bft) SO 135 3,9 C 6,8 C
21.09.2012 07:21 6,8 C 82 % 1020,8 hPa 0,0 l/m 3,2 km/h (1 Bft) S 180 3,9 C 6,8 C
21.09.2012 07:26 6,9 C 82 % 1020,8 hPa 0,0 l/m 5,4 km/h (1 Bft) S 180 4,0 C 6,1 C
21.09.2012 07:31 6,9 C 82 % 1020,6 hPa 0,0 l/m 6,5 km/h (2 Bft) S-SW 202 4,0 C 5,8 C
21.09.2012 07:36 7,1 C 82 % 1020,7 hPa 0,0 l/m 4,3 km/h (1 Bft) S-SO 157 4,2 C 7,1 C
21.09.2012 07:41 7,2 C 82 % 1020,5 hPa 0,0 l/m 3,2 km/h (1 Bft) S 180 4,3 C 7,2 C
21.09.2012 07:46 7,3 C 81 % 1020,6 hPa 0,0 l/m 0,0 km/h (0 Bft) S-SW 202 4,3 C 7,3 C
21.09.2012 07:51 7,4 C 81 % 1020,7 hPa 0,0 l/m 2,5 km/h (1 Bft) S-SO 157 4,4 C 7,4 C
21.09.2012 07:56 7,4 C 81 % 1020,7 hPa 0,0 l/m 6,5 km/h (2 Bft) S 180 4,4 C 6,3 C
21.09.2012 08:01 7,6 C 81 % 1020,7 hPa 0,0 l/m 4,0 km/h (1 Bft) S-SW 202 4,6 C 7,6 C
21.09.2012 08:06 7,7 C 81 % 1020,7 hPa 0,0 l/m 3,6 km/h (1 Bft) S-SO 157 4,7 C 7,7 C
21.09.2012 08:11 7,8 C 81 % 1020,7 hPa 0,0 l/m 3,2 km/h (1 Bft) S-SW 202 4,7 C 7,8 C
21.09.2012 08:16 7,9 C 80 % 1020,8 hPa 0,0 l/m 4,0 km/h (1 Bft) S-SW 202 4,7 C 7,9 C
21.09.2012 08:21 7,9 C 80 % 1020,8 hPa 0,0 l/m 2,9 km/h (1 Bft) SO 135 4,7 C 7,9 C
21.09.2012 08:26 8,1 C 80 % 1020,7 hPa 0,0 l/m 2,2 km/h (1 Bft) S-SO 157 4,9 C 8,1 C
21.09.2012 08:31 8,1 C 80 % 1020,8 hPa 0,0 l/m 3,2 km/h (1 Bft) S 180 4,9 C 8,1 C
21.09.2012 08:36 8,3 C 80 % 1020,8 hPa 0,0 l/m 6,8 km/h (2 Bft) S-SO 157 5,1 C 7,3 C
21.09.2012 08:41 8,4 C 79 % 1020,8 hPa 0,0 l/m 7,2 km/h (2 Bft) W-SW 247 5,0 C 7,3 C
21.09.2012 08:46 8,5 C 79 % 1020,7 hPa 0,0 l/m 5,4 km/h (1 Bft) S-SO 157 5,1 C 7,9 C
21.09.2012 08:51 8,8 C 79 % 1020,8 hPa 0,0 l/m 4,3 km/h (1 Bft) S-SW 202 5,4 C 8,8 C
21.09.2012 08:56 8,9 C 78 % 1020,8 hPa 0,0 l/m 4,0 km/h (1 Bft) S-SO 157 5,3 C 8,9 C
21.09.2012 09:01 9,2 C 77 % 1020,7 hPa 0,0 l/m 5,8 km/h (2 Bft) S-SO 157 5,4 C 8,6 C
21.09.2012 09:06 9,3 C 77 % 1020,6 hPa 0,0 l/m 4,7 km/h (1 Bft) SO 135 5,5 C 9,1 C
21.09.2012 09:11 9,5 C 77 % 1020,6 hPa 0,0 l/m 5,0 km/h (1 Bft) O 90 5,7 C 9,2 C
21.09.2012 09:16 9,6 C 76 % 1020,7 hPa 0,0 l/m 7,2 km/h (2 Bft) S-SO 157 5,6 C 8,7 C
21.09.2012 09:21 9,8 C 76 % 1020,6 hPa 0,0 l/m 5,4 km/h (1 Bft) S-SO 157 5,8 C 9,4 C
21.09.2012 09:26 9,9 C 76 % 1020,7 hPa 0,0 l/m 6,1 km/h (2 Bft) S-SO 157 5,9 C 9,3 C
21.09.2012 09:31 10,1 C 75 % 1020,5 hPa 0,0 l/m 2,9 km/h (1 Bft) S-SO 157 5,9 C 10,1 C
21.09.2012 09:36 10,2 C 75 % 1020,6 hPa 0,0 l/m 6,1 km/h (2 Bft) SW 225 6,0 C 10,2 C
21.09.2012 09:41 10,4 C 74 % 1020,6 hPa 0,0 l/m 0,0 km/h (0 Bft) S-SO 157 6,0 C 10,4 C
21.09.2012 09:46 10,6 C 74 % 1020,6 hPa 0,0 l/m 4,3 km/h (1 Bft) S 180 6,2 C 10,6 C
21.09.2012 09:51 10,8 C 73 % 1020,5 hPa 0,0 l/m 7,2 km/h (2 Bft) S-SW 202 6,2 C 10,8 C
21.09.2012 09:56 11,0 C 73 % 1020,5 hPa 0,0 l/m 3,2 km/h (1 Bft) SO 135 6,4 C 11,0 C
21.09.2012 10:01 11,3 C 72 % 1020,6 hPa 0,0 l/m 8,6 km/h (2 Bft) S-SO 157 6,4 C 11,3 C
21.09.2012 10:06 11,4 C 71 % 1020,5 hPa 0,0 l/m 9,0 km/h (2 Bft) SO 135 6,3 C 11,4 C
21.09.2012 10:11 11,6 C 71 % 1020,4 hPa 0,0 l/m 7,6 km/h (2 Bft) W-SW 247 6,5 C 11,6 C
21.09.2012 10:16 11,8 C 71 % 1020,4 hPa 0,0 l/m 14,8 km/h (3 Bft) S 180 6,7 C 11,8 C
21.09.2012 10:21 11,9 C 71 % 1020,5 hPa 0,0 l/m 6,5 km/h (2 Bft) W-SW 247 6,8 C 11,9 C
21.09.2012 10:26 12,2 C 69 % 1020,4 hPa 0,0 l/m 7,2 km/h (2 Bft) S-SO 157 6,7 C 12,2 C
21.09.2012 10:31 12,4 C 69 % 1020,3 hPa 0,0 l/m 4,0 km/h (1 Bft) W-SW 247 6,9 C 12,4 C
21.09.2012 10:36 12,6 C 68 % 1020,4 hPa 0,0 l/m 9,0 km/h (2 Bft) S-SO 157 6,9 C 12,6 C
21.09.2012 10:41 12,9 C 67 % 1020,4 hPa 0,0 l/m 6,1 km/h (2 Bft) S-SO 157 6,9 C 12,9 C
21.09.2012 10:46 13,0 C 67 % 1020,3 hPa 0,0 l/m 6,8 km/h (2 Bft) SW 225 7,0 C 13,0 C
21.09.2012 10:51 13,3 C 66 % 1020,5 hPa 0,0 l/m 16,6 km/h (3 Bft) S-SW 202 7,1 C 13,3 C
21.09.2012 10:56 13,5 C 65 % 1020,4 hPa 0,0 l/m 9,0 km/h (2 Bft) S-SO 157 7,1 C 13,5 C
21.09.2012 11:01 13,7 C 65 % 1020,3 hPa 0,0 l/m 17,6 km/h (3 Bft) S-SW 202 7,2 C 13,7 C
21.09.2012 11:06 13,9 C 64 % 1020,3 hPa 0,0 l/m 11,2 km/h (2 Bft) S-SW 202 7,2 C 13,9 C
21.09.2012 11:11 13,9 C 64 % 1020,1 hPa 0,0 l/m 2,5 km/h (1 Bft) S-SW 202 7,2 C 13,9 C
21.09.2012 11:16 14,2 C 63 % 1020,1 hPa 0,0 l/m 0,0 km/h (0 Bft) SO 135 7,3 C 14,2 C
21.09.2012 11:21 14,4 C 63 % 1020,0 hPa 0,0 l/m 6,8 km/h (2 Bft) S 180 7,4 C 14,4 C
21.09.2012 11:26 14,8 C 62 % 1020,1 hPa 0,0 l/m 11,9 km/h (2 Bft) W-SW 247 7,6 C 14,8 C
21.09.2012 11:31 14,9 C 61 % 1019,9 hPa 0,0 l/m 5,4 km/h (1 Bft) S-SO 157 7,4 C 14,9 C
21.09.2012 11:36 15,1 C 60 % 1020,0 hPa 0,0 l/m 4,0 km/h (1 Bft) S-SO 157 7,4 C 15,1 C
21.09.2012 11:41 15,3 C 59 % 1020,0 hPa 0,0 l/m 12,2 km/h (2 Bft) S-SW 202 7,3 C 15,3 C
21.09.2012 11:46 15,5 C 58 % 1019,9 hPa 0,0 l/m 8,6 km/h (2 Bft) S-SO 157 7,3 C 15,5 C
21.09.2012 11:51 15,7 C 57 % 1019,9 hPa 0,0 l/m 14,4 km/h (3 Bft) S 180 7,2 C 15,7 C
21.09.2012 11:56 15,8 C 57 % 1019,7 hPa 0,0 l/m 8,6 km/h (2 Bft) S-SO 157 7,3 C 15,8 C
21.09.2012 12:01 15,9 C 56 % 1019,6 hPa 0,0 l/m 12,2 km/h (2 Bft) W 270 7,1 C 15,9 C
21.09.2012 12:06 16,1 C 54 % 1019,4 hPa 0,0 l/m 6,5 km/h (2 Bft) S 180 6,8 C 16,1 C
21.09.2012 12:11 16,3 C 53 % 1019,4 hPa 0,0 l/m 16,6 km/h (3 Bft) S-SW 202 6,7 C 16,3 C
21.09.2012 12:16 16,4 C 52 % 1019,4 hPa 0,0 l/m 10,4 km/h (2 Bft) S-SW 202 6,5 C 16,4 C
21.09.2012 12:21 16,5 C 51 % 1019,3 hPa 0,0 l/m 7,2 km/h (2 Bft) S-SW 202 6,3 C 16,5 C
21.09.2012 12:26 16,7 C 51 % 1019,2 hPa 0,0 l/m 7,6 km/h (2 Bft) S 180 6,5 C 16,7 C
21.09.2012 12:31 16,9 C 50 % 1019,2 hPa 0,0 l/m 4,3 km/h (1 Bft) S-SW 202 6,4 C 16,9 C
21.09.2012 12:36 16,9 C 50 % 1019,2 hPa 0,0 l/m 8,6 km/h (2 Bft) S-SO 157 6,4 C 16,9 C
21.09.2012 12:41 17,0 C 50 % 1019,2 hPa 0,0 l/m 5,8 km/h (2 Bft) S-SW 202 6,5 C 17,0 C
21.09.2012 12:46 17,1 C 50 % 1018,9 hPa 0,0 l/m 14,8 km/h (3 Bft) S-SW 202 6,6 C 17,1 C
21.09.2012 12:51 17,2 C 50 % 1018,9 hPa 0,0 l/m 6,1 km/h (2 Bft) S-SO 157 6,7 C 17,2 C
21.09.2012 12:56 17,2 C 49 % 1018,9 hPa 0,0 l/m 7,2 km/h (2 Bft) S 180 6,4 C 17,2 C
21.09.2012 13:01 17,2 C 49 % 1018,8 hPa 0,0 l/m 12,2 km/h (2 Bft) S 180 6,4 C 17,2 C
21.09.2012 13:06 17,3 C 49 % 1018,8 hPa 0,0 l/m 7,6 km/h (2 Bft) S-SW 202 6,5 C 17,3 C
21.09.2012 13:11 17,3 C 49 % 1018,7 hPa 0,0 l/m 12,6 km/h (3 Bft) W 270 6,5 C 17,3 C
21.09.2012 13:16 17,4 C 48 % 1018,7 hPa 0,0 l/m 13,0 km/h (3 Bft) S 180 6,3 C 17,4 C
21.09.2012 13:21 17,4 C 48 % 1018,6 hPa 0,0 l/m 13,0 km/h (3 Bft) S 180 6,3 C 17,4 C
21.09.2012 13:26 17,5 C 48 % 1018,6 hPa 0,0 l/m 13,7 km/h (3 Bft) S-SW 202 6,4 C 17,5 C
21.09.2012 13:31 17,5 C 48 % 1018,5 hPa 0,0 l/m 3,6 km/h (1 Bft) S-SO 157 6,4 C 17,5 C
21.09.2012 13:36 17,5 C 48 % 1018,3 hPa 0,0 l/m 8,3 km/h (2 Bft) S-SO 157 6,4 C 17,5 C
21.09.2012 13:41 17,7 C 48 % 1018,1 hPa 0,0 l/m 2,9 km/h (1 Bft) S 180 6,6 C 17,7 C
21.09.2012 13:46 17,8 C 46 % 1018,0 hPa 0,0 l/m 16,6 km/h (3 Bft) S-SW 202 6,0 C 17,8 C
21.09.2012 13:51 17,8 C 45 % 1017,9 hPa 0,0 l/m 14,4 km/h (3 Bft) S-SO 157 5,7 C 17,8 C
21.09.2012 13:56 17,8 C 45 % 1017,9 hPa 0,0 l/m 13,7 km/h (3 Bft) S-SW 202 5,7 C 17,8 C
21.09.2012 14:01 17,9 C 46 % 1017,7 hPa 0,0 l/m 7,9 km/h (2 Bft) SW 225 6,1 C 17,9 C
21.09.2012 14:06 17,9 C 45 % 1017,8 hPa 0,0 l/m 20,9 km/h (4 Bft) S-SW 202 5,8 C 17,9 C
21.09.2012 14:11 17,9 C 44 % 1017,7 hPa 0,0 l/m 4,3 km/h (1 Bft) S-SO 157 5,5 C 17,9 C
21.09.2012 14:16 17,9 C 43 % 1017,5 hPa 0,0 l/m 13,3 km/h (3 Bft) W-SW 247 5,1 C 17,9 C
21.09.2012 14:21 17,9 C 45 % 1017,6 hPa 0,0 l/m 13,0 km/h (3 Bft) S-SW 202 5,8 C 17,9 C
21.09.2012 14:26 17,9 C 45 % 1017,5 hPa 0,0 l/m 2,2 km/h (1 Bft) SW 225 5,8 C 17,9 C
21.09.2012 14:31 18,1 C 45 % 1017,4 hPa 0,0 l/m 4,7 km/h (1 Bft) S-SO 157 6,0 C 18,1 C
21.09.2012 14:36 18,1 C 45 % 1017,3 hPa 0,0 l/m 6,1 km/h (2 Bft) SW 225 6,0 C 18,1 C
21.09.2012 14:41 18,3 C 45 % 1017,3 hPa 0,0 l/m 6,5 km/h (2 Bft) SO 135 6,2 C 18,3 C
21.09.2012 14:46 18,5 C 44 % 1017,2 hPa 0,0 l/m 4,7 km/h (1 Bft) SO 135 6,0 C 18,5 C
21.09.2012 14:51 18,5 C 44 % 1017,2 hPa 0,0 l/m 17,3 km/h (3 Bft) S 180 6,0 C 18,5 C
21.09.2012 14:56 18,5 C 43 % 1017,0 hPa 0,0 l/m 11,9 km/h (2 Bft) SO 135 5,7 C 18,5 C
21.09.2012 15:01 18,5 C 44 % 1016,9 hPa 0,0 l/m 5,8 km/h (2 Bft) S-SW 202 6,0 C 18,5 C
21.09.2012 15:06 18,5 C 44 % 1016,8 hPa 0,0 l/m 10,8 km/h (2 Bft) S-SW 202 6,0 C 18,5 C
21.09.2012 15:11 18,5 C 43 % 1016,8 hPa 0,0 l/m 15,8 km/h (3 Bft) S 180 5,7 C 18,5 C
21.09.2012 15:16 18,4 C 44 % 1016,9 hPa 0,0 l/m 17,3 km/h (3 Bft) S-SO 157 5,9 C 18,4 C
21.09.2012 15:21 18,4 C 44 % 1016,8 hPa 0,0 l/m 7,2 km/h (2 Bft) S 180 5,9 C 18,4 C
21.09.2012 15:26 18,3 C 44 % 1016,8 hPa 0,0 l/m 19,8 km/h (3 Bft) S-SW 202 5,8 C 18,3 C
21.09.2012 15:31 18,1 C 44 % 1016,8 hPa 0,0 l/m 16,9 km/h (3 Bft) S-SW 202 5,7 C 18,1 C
21.09.2012 15:36 18,0 C 44 % 1016,9 hPa 0,0 l/m 11,9 km/h (2 Bft) S-SW 202 5,6 C 18,0 C
21.09.2012 15:41 17,9 C 45 % 1016,8 hPa 0,0 l/m 7,2 km/h (2 Bft) S-SW 202 5,8 C 17,9 C
21.09.2012 15:46 17,9 C 45 % 1016,8 hPa 0,0 l/m 8,6 km/h (2 Bft) SW 225 5,8 C 17,9 C
21.09.2012 15:51 17,9 C 45 % 1016,7 hPa 0,0 l/m 14,0 km/h (3 Bft) S 180 5,8 C 17,9 C
21.09.2012 15:56 17,9 C 45 % 1016,7 hPa 0,0 l/m 10,8 km/h (2 Bft) S-SW 202 5,8 C 17,9 C
21.09.2012 16:01 17,9 C 45 % 1016,6 hPa 0,0 l/m 10,4 km/h (2 Bft) SW 225 5,8 C 17,9 C
21.09.2012 16:06 17,9 C 45 % 1016,5 hPa 0,0 l/m 9,4 km/h (2 Bft) S-SW 202 5,8 C 17,9 C
21.09.2012 16:11 17,8 C 45 % 1016,4 hPa 0,0 l/m 6,5 km/h (2 Bft) S-SO 157 5,7 C 17,8 C
21.09.2012 16:16 17,8 C 45 % 1016,3 hPa 0,0 l/m 6,5 km/h (2 Bft) S-SO 157 5,7 C 17,8 C
21.09.2012 16:21 17,8 C 46 % 1016,2 hPa 0,0 l/m 4,0 km/h (1 Bft) S 180 6,0 C 17,8 C
21.09.2012 16:26 17,8 C 46 % 1016,2 hPa 0,0 l/m 6,5 km/h (2 Bft) S 180 6,0 C 17,8 C
21.09.2012 16:31 17,8 C 46 % 1016,0 hPa 0,0 l/m 1,8 km/h (1 Bft) S-SW 202 6,0 C 17,8 C
21.09.2012 16:36 17,8 C 46 % 1016,0 hPa 0,0 l/m 8,3 km/h (2 Bft) S 180 6,0 C 17,8 C
21.09.2012 16:41 17,8 C 46 % 1015,9 hPa 0,0 l/m 9,4 km/h (2 Bft) S-SW 202 6,0 C 17,8 C
21.09.2012 16:46 17,8 C 46 % 1015,9 hPa 0,0 l/m 7,2 km/h (2 Bft) SW 225 6,0 C 17,8 C
21.09.2012 16:51 17,6 C 46 % 1015,9 hPa 0,0 l/m 5,8 km/h (2 Bft) S-SW 202 5,8 C 17,6 C
21.09.2012 16:56 17,6 C 45 % 1015,8 hPa 0,0 l/m 4,0 km/h (1 Bft) W-SW 247 5,5 C 17,6 C
21.09.2012 17:01 17,5 C 45 % 1015,6 hPa 0,0 l/m 5,8 km/h (2 Bft) S-SW 202 5,4 C 17,5 C
21.09.2012 17:06 17,4 C 45 % 1015,7 hPa 0,0 l/m 3,2 km/h (1 Bft) S-SW 202 5,3 C 17,4 C
21.09.2012 17:11 17,4 C 45 % 1015,5 hPa 0,0 l/m 7,2 km/h (2 Bft) SW 225 5,3 C 17,4 C
21.09.2012 17:16 17,3 C 46 % 1015,3 hPa 0,0 l/m 2,9 km/h (1 Bft) SO 135 5,6 C 17,3 C
21.09.2012 17:21 17,3 C 46 % 1015,2 hPa 0,0 l/m 10,1 km/h (2 Bft) S 180 5,6 C 17,3 C
21.09.2012 17:26 17,1 C 46 % 1015,0 hPa 0,0 l/m 3,6 km/h (1 Bft) W-NW 292 5,4 C 17,1 C
21.09.2012 17:31 17,1 C 46 % 1015,0 hPa 0,0 l/m 11,9 km/h (2 Bft) S-SW 202 5,4 C 17,1 C
21.09.2012 17:36 17,1 C 46 % 1015,0 hPa 0,0 l/m 9,4 km/h (2 Bft) SW 225 5,4 C 17,1 C
21.09.2012 17:41 17,0 C 46 % 1015,0 hPa 0,0 l/m 7,9 km/h (2 Bft) S-SW 202 5,3 C 17,0 C
21.09.2012 17:46 16,9 C 46 % 1014,9 hPa 0,0 l/m 4,7 km/h (1 Bft) S-SO 157 5,2 C 16,9 C
21.09.2012 17:51 16,9 C 46 % 1014,9 hPa 0,0 l/m 2,9 km/h (1 Bft) S 180 5,2 C 16,9 C
21.09.2012 17:56 16,8 C 47 % 1014,8 hPa 0,0 l/m 5,8 km/h (2 Bft) S-SO 157 5,4 C 16,8 C
21.09.2012 18:01 16,7 C 47 % 1015,0 hPa 0,0 l/m 7,6 km/h (2 Bft) S 180 5,3 C 16,7 C
21.09.2012 18:06 16,7 C 47 % 1014,9 hPa 0,0 l/m 4,7 km/h (1 Bft) S-SO 157 5,3 C 16,7 C
21.09.2012 18:11 16,6 C 48 % 1014,8 hPa 0,0 l/m 6,8 km/h (2 Bft) S-SW 202 5,5 C 16,6 C
21.09.2012 18:16 16,5 C 48 % 1014,7 hPa 0,0 l/m 2,5 km/h (1 Bft) O-SO 112 5,5 C 16,5 C
21.09.2012 18:21 16,4 C 48 % 1014,7 hPa 0,0 l/m 3,2 km/h (1 Bft) S-SW 202 5,4 C 16,4 C
21.09.2012 18:26 16,3 C 48 % 1014,5 hPa 0,0 l/m 5,8 km/h (2 Bft) S-SO 157 5,3 C 16,3 C
21.09.2012 18:31 16,3 C 48 % 1014,5 hPa 0,0 l/m 4,7 km/h (1 Bft) SO 135 5,3 C 16,3 C
21.09.2012 18:36 16,2 C 49 % 1014,5 hPa 0,0 l/m 2,2 km/h (1 Bft) S 180 5,5 C 16,2 C
21.09.2012 18:41 16,1 C 49 % 1014,5 hPa 0,0 l/m 2,5 km/h (1 Bft) S-SW 202 5,4 C 16,1 C
21.09.2012 18:46 15,9 C 49 % 1014,4 hPa 0,0 l/m 7,2 km/h (2 Bft) S-SO 157 5,2 C 15,9 C
21.09.2012 18:51 15,9 C 49 % 1014,5 hPa 0,0 l/m 6,5 km/h (2 Bft) S 180 5,2 C 15,9 C
21.09.2012 18:56 15,8 C 49 % 1014,5 hPa 0,0 l/m 3,2 km/h (1 Bft) SW 225 5,1 C 15,8 C
21.09.2012 19:01 15,8 C 50 % 1014,5 hPa 0,0 l/m 2,5 km/h (1 Bft) S-SO 157 5,4 C 15,8 C
21.09.2012 19:06 15,6 C 50 % 1014,5 hPa 0,0 l/m 0,0 km/h (0 Bft) S-SW 202 5,2 C 15,6 C
21.09.2012 19:11 15,6 C 50 % 1014,4 hPa 0,0 l/m 2,9 km/h (1 Bft) S-SO 157 5,2 C 15,6 C
21.09.2012 19:16 15,5 C 50 % 1014,4 hPa 0,0 l/m 6,5 km/h (2 Bft) S 180 5,1 C 15,5 C
21.09.2012 19:21 15,4 C 50 % 1014,2 hPa 0,0 l/m 5,8 km/h (2 Bft) S-SO 157 5,0 C 15,4 C
21.09.2012 19:26 15,3 C 51 % 1014,2 hPa 0,0 l/m 4,7 km/h (1 Bft) SO 135 5,2 C 15,3 C
21.09.2012 19:31 15,2 C 51 % 1014,2 hPa 0,0 l/m 2,5 km/h (1 Bft) SO 135 5,1 C 15,2 C
21.09.2012 19:36 15,1 C 51 % 1014,2 hPa 0,0 l/m 5,0 km/h (1 Bft) S 180 5,0 C 15,1 C
21.09.2012 19:41 15,1 C 51 % 1014,2 hPa 0,0 l/m 5,0 km/h (1 Bft) S 180 5,0 C 15,1 C
21.09.2012 19:46 14,9 C 51 % 1014,5 hPa 0,0 l/m 2,5 km/h (1 Bft) S-SW 202 4,9 C 14,9 C
21.09.2012 19:51 14,9 C 51 % 1014,2 hPa 0,0 l/m 2,5 km/h (1 Bft) S-SO 157 4,9 C 14,9 C
21.09.2012 19:56 14,9 C 51 % 1014,3 hPa 0,0 l/m 4,0 km/h (1 Bft) S-SO 157 4,9 C 14,9 C
21.09.2012 20:01 14,9 C 51 % 1014,2 hPa 0,0 l/m 3,2 km/h (1 Bft) SO 135 4,9 C 14,9 C
21.09.2012 20:06 14,9 C 51 % 1014,0 hPa 0,0 l/m 0,0 km/h (0 Bft) SO 135 4,9 C 14,9 C
21.09.2012 20:11 14,9 C 51 % 1013,9 hPa 0,0 l/m 2,9 km/h (1 Bft) S-SO 157 4,9 C 14,9 C
21.09.2012 20:16 14,9 C 51 % 1013,9 hPa 0,0 l/m 4,0 km/h (1 Bft) SO 135 4,9 C 14,9 C
21.09.2012 20:21 14,8 C 51 % 1014,0 hPa 0,0 l/m 1,1 km/h (1 Bft) S 180 4,8 C 14,8 C
21.09.2012 20:26 14,8 C 51 % 1014,0 hPa 0,0 l/m 3,6 km/h (1 Bft) S 180 4,8 C 14,8 C
21.09.2012 20:31 14,6 C 51 % 1013,9 hPa 0,0 l/m 5,8 km/h (2 Bft) S-SO 157 4,6 C 14,6 C
21.09.2012 20:36 14,6 C 51 % 1013,7 hPa 0,0 l/m 3,6 km/h (1 Bft) SO 135 4,6 C 14,6 C
21.09.2012 20:41 14,5 C 51 % 1013,7 hPa 0,0 l/m 3,2 km/h (1 Bft) SO 135 4,5 C 14,5 C
21.09.2012 20:46 14,4 C 52 % 1013,7 hPa 0,0 l/m 2,5 km/h (1 Bft) S-SO 157 4,7 C 14,4 C
21.09.2012 20:51 14,4 C 52 % 1013,8 hPa 0,0 l/m 3,2 km/h (1 Bft) SO 135 4,7 C 14,4 C
21.09.2012 20:56 14,3 C 52 % 1013,5 hPa 0,0 l/m 3,6 km/h (1 Bft) O-SO 112 4,6 C 14,3 C
21.09.2012 21:01 14,2 C 52 % 1013,5 hPa 0,0 l/m 6,1 km/h (2 Bft) S-SO 157 4,5 C 14,2 C
21.09.2012 21:06 14,2 C 52 % 1013,3 hPa 0,0 l/m 5,0 km/h (1 Bft) S 180 4,5 C 14,2 C
21.09.2012 21:11 14,1 C 52 % 1013,1 hPa 0,0 l/m 2,5 km/h (1 Bft) S-SO 157 4,4 C 14,1 C
21.09.2012 21:16 14,1 C 53 % 1012,9 hPa 0,0 l/m 2,5 km/h (1 Bft) O 90 4,7 C 14,1 C
21.09.2012 21:21 13,9 C 53 % 1013,0 hPa 0,0 l/m 2,2 km/h (1 Bft) SO 135 4,5 C 13,9 C
21.09.2012 21:26 13,9 C 53 % 1013,1 hPa 0,0 l/m 5,4 km/h (1 Bft) SO 135 4,5 C 13,9 C
21.09.2012 21:31 13,9 C 53 % 1013,1 hPa 0,0 l/m 5,0 km/h (1 Bft) S-SO 157 4,5 C 13,9 C
21.09.2012 21:36 13,8 C 54 % 1013,0 hPa 0,0 l/m 3,2 km/h (1 Bft) SO 135 4,7 C 13,8 C
21.09.2012 21:41 13,8 C 54 % 1012,9 hPa 0,0 l/m 6,5 km/h (2 Bft) S-SO 157 4,7 C 13,8 C
21.09.2012 21:46 13,7 C 54 % 1012,8 hPa 0,0 l/m 5,4 km/h (1 Bft) S-SW 202 4,6 C 13,7 C
21.09.2012 21:51 13,6 C 54 % 1012,8 hPa 0,0 l/m 5,4 km/h (1 Bft) SO 135 4,5 C 13,6 C
21.09.2012 21:56 13,6 C 54 % 1012,7 hPa 0,0 l/m 5,8 km/h (2 Bft) SO 135 4,5 C 13,6 C
21.09.2012 22:01 13,6 C 54 % 1012,4 hPa 0,0 l/m 6,8 km/h (2 Bft) SO 135 4,5 C 13,6 C
21.09.2012 22:06 13,6 C 54 % 1012,4 hPa 0,0 l/m 6,8 km/h (2 Bft) SO 135 4,5 C 13,6 C
21.09.2012 22:11 13,5 C 54 % 1012,3 hPa 0,0 l/m 3,6 km/h (1 Bft) S-SO 157 4,4 C 13,5 C
21.09.2012 22:16 13,5 C 54 % 1012,3 hPa 0,0 l/m 4,0 km/h (1 Bft) SO 135 4,4 C 13,5 C
21.09.2012 22:21 13,5 C 54 % 1012,3 hPa 0,0 l/m 4,7 km/h (1 Bft) S-SO 157 4,4 C 13,5 C
21.09.2012 22:26 13,4 C 55 % 1012,3 hPa 0,0 l/m 4,7 km/h (1 Bft) SO 135 4,5 C 13,4 C
21.09.2012 22:31 13,4 C 55 % 1012,3 hPa 0,0 l/m 4,0 km/h (1 Bft) S 180 4,5 C 13,4 C
21.09.2012 22:36 13,4 C 55 % 1012,3 hPa 0,0 l/m 2,2 km/h (1 Bft) S-SW 202 4,5 C 13,4 C
21.09.2012 22:41 13,3 C 55 % 1012,3 hPa 0,0 l/m 6,1 km/h (2 Bft) SO 135 4,5 C 13,3 C
21.09.2012 22:46 13,3 C 55 % 1012,1 hPa 0,0 l/m 6,5 km/h (2 Bft) SO 135 4,5 C 13,3 C
21.09.2012 22:51 13,3 C 56 % 1012,2 hPa 0,0 l/m 3,2 km/h (1 Bft) SO 135 4,7 C 13,3 C
21.09.2012 22:56 13,3 C 56 % 1012,1 hPa 0,0 l/m 7,2 km/h (2 Bft) S-SO 157 4,7 C 13,3 C
21.09.2012 23:01 13,2 C 56 % 1012,0 hPa 0,0 l/m 3,6 km/h (1 Bft) SO 135 4,6 C 13,2 C
21.09.2012 23:06 13,2 C 56 % 1012,0 hPa 0,0 l/m 4,7 km/h (1 Bft) SO 135 4,6 C 13,2 C
21.09.2012 23:11 13,2 C 56 % 1012,0 hPa 0,0 l/m 3,2 km/h (1 Bft) SO 135 4,6 C 13,2 C
21.09.2012 23:16 13,1 C 57 % 1011,8 hPa 0,0 l/m 2,5 km/h (1 Bft) S-SO 157 4,8 C 13,1 C
21.09.2012 23:21 13,1 C 57 % 1011,7 hPa 0,0 l/m 3,6 km/h (1 Bft) S-SO 157 4,8 C 13,1 C
21.09.2012 23:26 13,1 C 57 % 1011,6 hPa 0,0 l/m 4,0 km/h (1 Bft) SO 135 4,8 C 13,1 C
21.09.2012 23:31 13,1 C 57 % 1011,4 hPa 0,0 l/m 6,8 km/h (2 Bft) SO 135 4,8 C 13,1 C
21.09.2012 23:36 13,1 C 58 % 1011,4 hPa 0,0 l/m 4,7 km/h (1 Bft) SO 135 5,0 C 13,1 C
21.09.2012 23:41 13,1 C 58 % 1011,4 hPa 0,0 l/m 4,7 km/h (1 Bft) S-SO 157 5,0 C 13,1 C
21.09.2012 23:46 13,1 C 58 % 1011,2 hPa 0,0 l/m 5,4 km/h (1 Bft) SO 135 5,0 C 13,1 C
21.09.2012 23:51 13,1 C 58 % 1011,0 hPa 0,0 l/m 4,7 km/h (1 Bft) SO 135 5,0 C 13,1 C
21.09.2012 23:56 13,0 C 58 % 1011,0 hPa 0,0 l/m 4,7 km/h (1 Bft) SO 135 4,9 C 13,0 C
_ Min-Zeit 06:31 14:16 23:51 - 00:06 - - 06:31 06:51
Minimum _ 6,5 C 43 % 1011,0 hPa - 0,0 km/h (0 Bft) - - 3,3 C 5,6 C
_ Max-Zeit 14:46 07:11 00:01 00:01 14:06 - - 11:26 14:46
Maximum _ 18,5 C 82 % 1022,5 hPa 0,0 l/m 20,9 km/h
S-SW (4 Bft)
- - 7,6 C 18,5 C
Durchschnitt _ 12,4 C 63 % 1018,2 hPa #0,0 l/m 5,4 km/h (1 Bft) S-SO - 5,1 C 12,4 C
(c) by David Heller